createdAt,value
2019-04-21T00:01:42.015Z,7.67
2019-04-21T00:04:19.920Z,7.10
2019-04-21T00:07:00.436Z,6.93
2019-04-21T00:09:27.795Z,6.47
2019-04-21T00:11:56.963Z,7.20
2019-04-21T00:14:14.100Z,6.47
2019-04-21T00:16:43.213Z,6.73
2019-04-21T00:19:09.371Z,6.87
2019-04-21T00:21:39.446Z,7.28
2019-04-21T00:24:20.221Z,7.18
2019-04-21T00:26:53.123Z,7.00
2019-04-21T00:29:27.541Z,6.73
2019-04-21T00:31:47.136Z,7.47
2019-04-21T00:34:00.489Z,7.10
2019-04-21T00:36:40.587Z,6.93
2019-04-21T00:39:31.694Z,7.03
2019-04-21T00:41:50.596Z,6.63
2019-04-21T00:44:08.692Z,6.73
2019-04-21T00:46:42.840Z,6.50
2019-04-21T00:49:10.533Z,6.43
2019-04-21T00:51:54.111Z,7.23
2019-04-21T00:54:21.155Z,6.90
2019-04-21T00:56:49.501Z,6.47
2019-04-21T00:59:16.255Z,6.90
2019-04-21T01:01:37.872Z,6.87
2019-04-21T01:04:09.754Z,7.00
2019-04-21T01:06:42.751Z,7.83
2019-04-21T01:09:08.409Z,7.23
2019-04-21T01:11:38.986Z,7.20
2019-04-21T01:14:05.571Z,7.00
2019-04-21T01:16:44.160Z,7.57
2019-04-21T01:19:05.330Z,7.97
2019-04-21T01:21:14.452Z,8.47
2019-04-21T01:23:42.257Z,7.93
2019-04-21T01:26:22.847Z,7.57
2019-04-21T01:28:58.397Z,8.32
2019-04-21T01:31:22.529Z,7.60
2019-04-21T01:33:59.221Z,7.53
2019-04-21T01:36:24.260Z,7.67
2019-04-21T01:38:55.112Z,7.43
2019-04-21T01:41:26.516Z,8.45
2019-04-21T01:43:53.512Z,7.63
2019-04-21T01:46:24.534Z,7.50
2019-04-21T01:48:42.775Z,7.20
2019-04-21T01:51:14.307Z,8.00
2019-04-21T01:53:56.483Z,7.13
2019-04-21T01:56:23.854Z,8.25
2019-04-21T01:58:42.848Z,7.73
2019-04-21T02:01:16.014Z,8.40
2019-04-21T02:03:56.869Z,7.80
2019-04-21T02:06:21.161Z,7.87
2019-04-21T02:08:49.318Z,8.10
2019-04-21T02:11:18.827Z,7.37
2019-04-21T02:13:57.290Z,7.40
2019-04-21T02:16:21.547Z,8.27
2019-04-21T02:18:51.818Z,8.00
2019-04-21T02:21:04.072Z,7.73
2019-04-21T02:23:57.707Z,8.13
2019-04-21T02:26:21.255Z,8.80
2019-04-21T02:28:51.766Z,8.30
2019-04-21T02:36:33.222Z,8.30
2019-04-21T02:39:00.263Z,9.27
2019-04-21T02:41:26.502Z,8.50
2019-04-21T02:43:54.413Z,7.97
2019-04-21T02:46:27.137Z,8.20
2019-04-21T02:51:23.360Z,8.40
2019-04-21T02:54:08.004Z,8.83
2019-04-21T02:56:22.669Z,8.67
2019-04-21T02:58:57.001Z,8.10
2019-04-21T03:03:50.597Z,8.77
2019-04-21T03:06:10.885Z,8.23
2019-04-21T03:08:50.500Z,7.97
2019-04-21T03:11:11.010Z,8.57
2019-04-21T03:13:44.595Z,8.17
2019-04-21T03:16:23.415Z,7.97
2019-04-21T03:18:43.771Z,9.20
2019-04-21T03:21:07.557Z,7.93
2019-04-21T03:26:10.181Z,8.50
2019-04-21T03:31:25.600Z,8.57
2019-04-21T03:34:21.404Z,8.97
2019-04-21T03:36:37.184Z,8.40
2019-04-21T03:38:26.984Z,8.37
2019-04-21T03:40:57.393Z,8.30
2019-04-21T03:45:49.257Z,8.57
2019-04-21T03:50:47.242Z,9.07
2019-04-21T03:53:18.601Z,8.67
2019-04-21T03:58:31.557Z,8.87
2019-04-21T04:01:00.563Z,8.83
2019-04-21T04:08:31.858Z,9.20
2019-04-21T04:11:05.091Z,9.17
2019-04-21T04:15:56.491Z,9.30
2019-04-21T04:18:33.918Z,9.30
2019-04-21T04:20:45.515Z,9.60
2019-04-21T04:23:20.332Z,9.13
2019-04-21T04:25:42.831Z,9.47
2019-04-21T04:28:22.800Z,9.27
2019-04-21T04:30:47.579Z,8.90
2019-04-21T04:33:10.582Z,8.47
2019-04-21T04:35:53.711Z,9.93
2019-04-21T04:38:12.986Z,10.23
2019-04-21T04:40:38.730Z,10.30
2019-04-21T04:45:41.573Z,9.00
2019-04-21T04:48:05.973Z,9.70
2019-04-21T04:50:43.320Z,9.63
2019-04-21T04:52:51.209Z,9.67
2019-04-21T04:55:33.897Z,9.33
2019-04-21T05:00:35.035Z,10.13
2019-04-21T05:02:55.969Z,9.60
2019-04-21T05:05:31.930Z,9.90
2019-04-21T05:07:57.770Z,9.77
2019-04-21T05:10:29.555Z,9.47
2019-04-21T05:12:51.127Z,9.80
2019-04-21T05:15:16.085Z,9.77
2019-04-21T05:20:23.700Z,10.27
2019-04-21T05:22:42.676Z,10.48
2019-04-21T05:25:06.838Z,9.57
2019-04-21T05:27:34.964Z,9.20
2019-04-21T05:30:10.267Z,10.43
2019-04-21T05:32:45.252Z,9.53
2019-04-21T05:35:08.035Z,10.75
2019-04-21T05:37:35.381Z,9.67
2019-04-21T05:40:00.503Z,9.80
2019-04-21T05:42:30.525Z,9.70
2019-04-21T05:45:08.083Z,9.60
2019-04-21T05:47:40.368Z,9.47
2019-04-21T05:50:01.202Z,11.00
2019-04-21T05:52:29.832Z,11.23
2019-04-21T05:55:06.375Z,9.87
2019-04-21T05:57:28.897Z,9.70
2019-04-21T06:00:01.197Z,9.90
2019-04-21T06:02:28.961Z,10.53
2019-04-21T06:07:29.004Z,10.68
2019-04-21T06:10:10.630Z,10.43
2019-04-21T06:12:29.730Z,11.37
2019-04-21T06:14:59.101Z,10.87
2019-04-21T06:17:31.487Z,10.70
2019-04-21T06:19:57.283Z,10.83
2019-04-21T06:22:18.831Z,10.97
2019-04-21T06:25:16.160Z,10.83
2019-04-21T06:27:22.925Z,10.67
2019-04-21T06:29:50.212Z,10.87
2019-04-21T06:32:30.391Z,11.37
2019-04-21T06:35:07.370Z,10.90
2019-04-21T06:37:39.776Z,10.30
2019-04-21T06:40:03.194Z,10.80
2019-04-21T06:42:16.729Z,10.17
2019-04-21T06:44:53.781Z,11.52
2019-04-21T06:47:26.612Z,10.83
2019-04-21T06:49:36.870Z,11.03
2019-04-21T06:52:29.873Z,11.20
2019-04-21T06:54:44.727Z,11.47
2019-04-21T06:57:10.737Z,11.27
2019-04-21T06:59:31.692Z,11.50
2019-04-21T07:02:28.648Z,12.02
2019-04-21T07:04:39.551Z,10.77
2019-04-21T07:07:18.748Z,11.17
2019-04-21T07:09:31.451Z,11.50
2019-04-21T07:11:59.682Z,11.35
2019-04-21T07:17:06.792Z,11.23
2019-04-21T07:19:38.483Z,10.83
2019-04-21T07:21:57.512Z,10.47
2019-04-21T07:24:31.457Z,10.77
2019-04-21T07:27:00.295Z,11.27
2019-04-21T07:29:32.561Z,10.23
2019-04-21T07:31:59.167Z,11.10
2019-04-21T07:34:28.958Z,10.77
2019-04-21T07:39:18.567Z,11.03
2019-04-21T07:41:43.807Z,10.30
2019-04-21T07:44:15.007Z,10.27
2019-04-21T07:46:41.680Z,10.43
2019-04-21T07:49:12.838Z,8.90
2019-04-21T07:51:56.550Z,8.57
2019-04-21T07:54:26.863Z,9.07
2019-04-21T07:56:34.877Z,8.77
2019-04-21T07:59:24.355Z,8.73
2019-04-21T08:01:50.788Z,8.95
2019-04-21T08:04:38.211Z,7.67
2019-04-21T08:06:47.791Z,7.77
2019-04-21T08:09:13.638Z,8.03
2019-04-21T08:11:40.635Z,7.87
2019-04-21T08:14:13.222Z,8.30
2019-04-21T08:16:40.013Z,8.13
2019-04-21T08:19:07.195Z,7.50
2019-04-21T08:21:47.195Z,7.83
2019-04-21T08:24:06.372Z,8.55
2019-04-21T08:26:38.297Z,7.83
2019-04-21T08:29:12.705Z,7.77
2019-04-21T08:31:46.965Z,7.53
2019-04-21T08:34:07.891Z,7.83
2019-04-21T08:36:28.434Z,7.20
2019-04-21T08:38:58.340Z,7.00
2019-04-21T08:41:27.734Z,7.00
2019-04-21T08:43:58.915Z,7.60
2019-04-21T08:46:31.790Z,7.17
2019-04-21T08:48:55.450Z,7.40
2019-04-21T08:51:41.913Z,6.97
2019-04-21T08:54:04.194Z,7.32
2019-04-21T08:56:40.148Z,6.97
2019-04-21T09:01:33.024Z,6.33
2019-04-21T09:03:56.097Z,6.60
2019-04-21T09:06:40.331Z,6.23
2019-04-21T09:08:51.983Z,6.00
2019-04-21T09:11:21.003Z,6.10
2019-04-21T09:13:50.386Z,5.77
2019-04-21T09:16:17.081Z,6.23
2019-04-21T09:18:41.758Z,5.43
2019-04-21T09:21:19.384Z,5.63
2019-04-21T09:23:45.227Z,5.40
2019-04-21T09:26:18.669Z,4.60
2019-04-21T09:28:39.481Z,5.50
2019-04-21T09:31:00.676Z,4.57
2019-04-21T09:33:29.709Z,4.40
2019-04-21T09:35:57.420Z,5.20
2019-04-21T09:38:29.951Z,4.77
2019-04-21T09:40:54.396Z,5.07
2019-04-21T09:43:31.740Z,5.22
2019-04-21T09:45:49.603Z,4.53
2019-04-21T09:48:20.753Z,4.37
2019-04-21T09:50:46.281Z,4.73
2019-04-21T09:53:26.326Z,4.80
2019-04-21T09:55:51.343Z,4.60
2019-04-21T09:58:23.954Z,4.17
2019-04-21T10:00:56.601Z,4.47
2019-04-21T10:03:15.754Z,4.23
2019-04-21T10:05:41.672Z,4.70
2019-04-21T10:08:12.419Z,4.57
2019-04-21T10:10:40.082Z,4.43
2019-04-21T10:13:10.586Z,4.10
2019-04-21T10:15:38.296Z,5.20
2019-04-21T10:18:10.808Z,4.27
2019-04-21T10:20:38.918Z,4.17
2019-04-21T10:23:09.229Z,4.47
2019-04-21T10:25:38.625Z,4.13
2019-04-21T10:28:07.349Z,4.50
2019-04-21T10:30:36.438Z,3.80
2019-04-21T10:33:04.081Z,3.60
2019-04-21T10:35:33.469Z,4.32
2019-04-21T10:38:14.930Z,4.30
2019-04-21T10:40:33.845Z,4.35
2019-04-21T10:43:00.565Z,3.50
2019-04-21T10:45:30.742Z,3.80
2019-04-21T10:47:58.810Z,3.20
2019-04-21T10:50:27.123Z,3.47
2019-04-21T10:52:58.660Z,4.35
2019-04-21T10:55:41.716Z,3.57
2019-04-21T10:58:00.705Z,3.40
2019-04-21T11:00:30.134Z,3.35
2019-04-21T11:03:04.713Z,3.40
2019-04-21T11:05:32.841Z,3.42
2019-04-21T11:08:14.842Z,3.03
2019-04-21T11:10:31.964Z,2.47
2019-04-21T11:13:00.852Z,2.72
2019-04-21T11:15:29.688Z,3.00
2019-04-21T11:17:59.744Z,2.80
2019-04-21T11:20:28.535Z,2.53
2019-04-21T11:22:57.449Z,3.10
2019-04-21T11:25:26.261Z,2.70
2019-04-21T11:27:55.303Z,2.60
2019-04-21T11:30:23.493Z,2.92
2019-04-21T11:32:53.124Z,2.80
2019-04-21T11:35:21.271Z,3.08
2019-04-21T11:37:50.319Z,2.90
2019-04-21T11:40:21.573Z,3.30
2019-04-21T11:42:48.118Z,2.72
2019-04-21T11:45:26.481Z,2.55
2019-04-21T11:48:00.925Z,3.00
2019-04-21T11:50:30.879Z,2.73
2019-04-21T11:52:59.437Z,2.75
2019-04-21T11:55:36.457Z,2.80
2019-04-21T11:57:58.327Z,2.83
2019-04-21T12:00:27.314Z,2.83
2019-04-21T12:02:55.441Z,3.03
2019-04-21T12:05:23.788Z,2.85
2019-04-21T12:07:53.434Z,2.65
2019-04-21T12:10:21.669Z,2.60
2019-04-21T12:12:50.978Z,3.00
2019-04-21T12:15:20.832Z,2.70
2019-04-21T12:17:50.023Z,3.00
2019-04-21T12:20:18.780Z,3.10
2019-04-21T12:22:47.431Z,2.67
2019-04-21T12:25:15.599Z,2.87
2019-04-21T12:27:44.157Z,3.10
2019-04-21T12:30:13.719Z,2.87
2019-04-21T12:32:48.583Z,2.80
2019-04-21T12:35:17.661Z,3.15
2019-04-21T12:37:46.809Z,2.60
2019-04-21T12:40:15.147Z,3.00
2019-04-21T12:42:45.408Z,3.00
2019-04-21T12:45:13.126Z,3.28
2019-04-21T12:47:41.924Z,3.10
2019-04-21T12:50:10.918Z,3.10
2019-04-21T12:52:39.724Z,2.95
2019-04-21T12:55:09.331Z,2.92
2019-04-21T12:57:37.246Z,3.12
2019-04-21T13:00:06.791Z,3.00
2019-04-21T13:02:35.805Z,3.40
2019-04-21T13:05:04.363Z,3.12
2019-04-21T13:07:33.231Z,3.20
2019-04-21T13:10:04.354Z,3.30
2019-04-21T13:12:33.181Z,3.22
2019-04-21T13:15:02.822Z,3.45
2019-04-21T13:17:31.063Z,3.22
2019-04-21T13:19:59.055Z,3.35
2019-04-21T13:22:28.009Z,3.53
2019-04-21T13:24:56.235Z,3.20
2019-04-21T13:27:25.085Z,3.53
2019-04-21T13:29:54.555Z,3.37
2019-04-21T13:32:22.789Z,3.37
2019-04-21T13:34:52.779Z,3.40
2019-04-21T13:37:23.589Z,3.28
2019-04-21T13:40:14.730Z,3.00
2019-04-21T13:42:31.154Z,3.30
2019-04-21T13:44:50.973Z,3.60
2019-04-21T13:47:20.716Z,3.35
2019-04-21T13:49:49.515Z,3.35
2019-04-21T13:52:18.510Z,3.40
2019-04-21T13:54:45.877Z,3.20
2019-04-21T13:57:16.713Z,3.12
2019-04-21T13:59:46.342Z,3.53
2019-04-21T14:02:13.881Z,3.40
2019-04-21T14:04:43.456Z,3.20
2019-04-21T14:07:12.352Z,3.15
2019-04-21T14:09:51.999Z,3.10
2019-04-21T14:12:10.028Z,3.50
2019-04-21T14:14:39.617Z,3.37
2019-04-21T14:17:08.907Z,2.92
2019-04-21T14:19:37.427Z,3.47
2019-04-21T14:22:08.567Z,3.25
2019-04-21T14:24:35.052Z,3.42
2019-04-21T14:27:04.097Z,3.33
2019-04-21T14:29:33.463Z,3.55
2019-04-21T14:32:02.114Z,3.28
2019-04-21T14:34:30.648Z,3.30
2019-04-21T14:36:59.495Z,3.30
2019-04-21T14:39:28.342Z,3.37
2019-04-21T14:41:58.149Z,3.78
2019-04-21T14:44:27.189Z,3.87
2019-04-21T14:46:55.643Z,3.75
2019-04-21T14:49:31.077Z,3.65
2019-04-21T14:52:01.162Z,3.65
2019-04-21T14:54:30.893Z,3.33
2019-04-21T14:56:59.076Z,3.60
2019-04-21T14:59:28.856Z,3.35
2019-04-21T15:01:57.950Z,3.10
2019-04-21T15:04:27.897Z,3.25
2019-04-21T15:06:55.219Z,3.22
2019-04-21T15:09:25.297Z,3.20
2019-04-21T15:11:53.896Z,3.30
2019-04-21T15:14:22.231Z,3.35
2019-04-21T15:16:51.255Z,3.90
2019-04-21T15:19:20.443Z,3.87
2019-04-21T15:21:48.293Z,3.00
2019-04-21T15:24:18.325Z,3.20
2019-04-21T15:26:46.411Z,3.17
2019-04-21T15:29:16.981Z,2.70
2019-04-21T15:31:46.515Z,3.10
2019-04-21T15:34:15.020Z,3.12
2019-04-21T15:36:44.126Z,3.10
2019-04-21T15:39:12.269Z,3.67
2019-04-21T15:41:41.109Z,3.08
2019-04-21T15:44:10.013Z,3.05
2019-04-21T15:46:39.936Z,3.50
2019-04-21T15:49:09.171Z,3.08
2019-04-21T15:51:38.039Z,4.05
2019-04-21T15:54:06.907Z,3.60
2019-04-21T15:56:38.521Z,4.22
2019-04-21T15:59:12.591Z,3.30
2019-04-21T16:01:40.782Z,3.20
2019-04-21T16:04:10.676Z,2.95
2019-04-21T16:06:39.406Z,3.78
2019-04-21T16:09:08.418Z,3.65
2019-04-21T16:11:37.867Z,3.28
2019-04-21T16:14:05.856Z,3.25
2019-04-21T16:16:36.029Z,3.20
2019-04-21T16:19:03.918Z,3.10
2019-04-21T16:21:35.272Z,3.45
2019-04-21T16:24:02.653Z,3.40
2019-04-21T16:26:30.686Z,3.45
2019-04-21T16:28:59.462Z,3.30
2019-04-21T16:31:30.050Z,3.15
2019-04-21T16:33:58.773Z,3.30
2019-04-21T16:36:27.444Z,3.08
2019-04-21T16:38:55.669Z,2.90
2019-04-21T16:41:24.952Z,3.60
2019-04-21T16:43:55.303Z,3.08
2019-04-21T16:46:23.260Z,2.92
2019-04-21T16:48:51.714Z,2.80
2019-04-21T16:51:20.357Z,3.00
2019-04-21T16:53:50.279Z,2.92
2019-04-21T16:56:22.787Z,2.80
2019-04-21T16:58:52.617Z,2.92
2019-04-21T17:01:26.207Z,2.70
2019-04-21T17:03:54.738Z,3.10
2019-04-21T17:06:24.862Z,3.20
2019-04-21T17:08:52.974Z,3.00
2019-04-21T17:11:27.150Z,3.00
2019-04-21T17:13:51.955Z,3.12
2019-04-21T17:19:00.580Z,2.97
2019-04-21T17:21:19.283Z,3.03
2019-04-21T17:23:48.155Z,2.72
2019-04-21T17:26:17.073Z,2.72
2019-04-21T17:28:44.909Z,2.95
2019-04-21T17:31:13.410Z,2.90
2019-04-21T17:33:43.443Z,2.92
2019-04-21T17:36:11.318Z,3.33
2019-04-21T17:38:39.965Z,3.30
2019-04-21T17:41:15.616Z,3.20
2019-04-21T17:43:37.669Z,3.95
2019-04-21T17:46:06.894Z,3.83
2019-04-21T17:48:36.550Z,3.10
2019-04-21T17:51:05.306Z,3.90
2019-04-21T17:53:44.878Z,3.35
2019-04-21T17:56:31.446Z,3.37
2019-04-21T17:59:01.703Z,3.33
2019-04-21T18:01:35.602Z,3.28
2019-04-21T18:03:58.845Z,3.22
2019-04-21T18:06:14.246Z,3.05
2019-04-21T18:08:52.892Z,3.15
2019-04-21T18:11:09.510Z,3.03
2019-04-21T18:13:28.739Z,3.20
2019-04-21T18:16:09.725Z,2.80
2019-04-21T18:18:26.559Z,2.65
2019-04-21T18:21:00.875Z,2.62
2019-04-21T18:23:39.454Z,2.83
2019-04-21T18:26:07.118Z,3.00
2019-04-21T18:28:28.446Z,3.05
2019-04-21T18:30:58.510Z,2.78
2019-04-21T18:33:31.780Z,3.08
2019-04-21T18:35:58.085Z,2.75
2019-04-21T18:38:38.564Z,3.20
2019-04-21T18:40:58.041Z,3.20
2019-04-21T18:43:58.408Z,3.00
2019-04-21T18:46:23.133Z,2.78
2019-04-21T18:48:36.232Z,2.97
2019-04-21T18:51:02.500Z,2.90
2019-04-21T18:53:41.517Z,3.15
2019-04-21T18:56:00.339Z,3.25
2019-04-21T18:58:22.324Z,2.97
2019-04-21T19:00:52.928Z,3.17
2019-04-21T19:03:27.380Z,2.80
2019-04-21T19:05:54.407Z,2.80
2019-04-21T19:08:38.738Z,2.72
2019-04-21T19:11:10.382Z,2.80
2019-04-21T19:13:45.738Z,2.60
2019-04-21T19:16:22.858Z,2.62
2019-04-21T19:21:04.075Z,3.25
2019-04-21T19:23:41.022Z,3.17
2019-04-21T19:26:10.390Z,3.03
2019-04-21T19:28:37.318Z,3.00
2019-04-21T19:31:05.164Z,2.60
2019-04-21T19:33:24.357Z,3.00
2019-04-21T19:35:39.383Z,3.07
2019-04-21T19:38:10.481Z,3.05
2019-04-21T19:40:50.825Z,2.97
2019-04-21T19:43:17.307Z,3.20
2019-04-21T19:45:48.585Z,2.95
2019-04-21T19:48:20.414Z,2.87
2019-04-21T19:50:50.545Z,3.12
2019-04-21T19:53:06.401Z,2.67
2019-04-21T19:55:29.842Z,2.80
2019-04-21T19:57:59.380Z,2.78
2019-04-21T20:00:28.975Z,2.83
2019-04-21T20:02:58.614Z,2.90
2019-04-21T20:05:36.137Z,3.33
2019-04-21T20:08:11.326Z,2.85
2019-04-21T20:10:44.525Z,3.92
2019-04-21T20:13:14.657Z,3.65
2019-04-21T20:15:41.545Z,3.92
2019-04-21T20:18:04.806Z,3.53
2019-04-21T20:20:19.802Z,3.50
2019-04-21T20:22:51.972Z,3.50
2019-04-21T20:25:22.784Z,4.30
2019-04-21T20:27:55.463Z,4.50
2019-04-21T20:30:40.456Z,4.47
2019-04-21T20:33:11.639Z,4.15
2019-04-21T20:35:40.454Z,4.72
2019-04-21T20:37:57.584Z,4.45
2019-04-21T20:40:25.089Z,4.75
2019-04-21T20:42:51.071Z,4.82
2019-04-21T20:47:44.698Z,4.40
2019-04-21T20:50:19.461Z,5.72
2019-04-21T20:52:55.115Z,5.22
2019-04-21T20:55:19.168Z,5.18
2019-04-21T20:57:50.632Z,5.57
2019-04-21T21:00:19.303Z,5.07
2019-04-21T21:02:55.552Z,4.75
2019-04-21T21:05:17.462Z,4.97
2019-04-21T21:07:50.087Z,5.00
2019-04-21T21:10:16.616Z,5.22
2019-04-21T21:12:51.141Z,5.05
2019-04-21T21:15:07.917Z,4.87
2019-04-21T21:20:16.345Z,4.65
2019-04-21T21:22:37.729Z,5.40
2019-04-21T21:25:12.998Z,5.35
2019-04-21T21:27:36.802Z,5.43
2019-04-21T21:30:06.660Z,5.00
2019-04-21T21:32:38.511Z,4.70
2019-04-21T21:35:08.305Z,4.60
2019-04-21T21:37:38.827Z,4.97
2019-04-21T21:40:24.498Z,4.70
2019-04-21T21:42:26.056Z,4.15
2019-04-21T21:44:54.548Z,4.90
2019-04-21T21:47:30.426Z,4.60
2019-04-21T21:49:57.790Z,4.50
2019-04-21T21:52:30.054Z,4.45
2019-04-21T21:54:45.510Z,4.53
2019-04-21T21:57:14.685Z,4.47
2019-04-21T21:59:43.578Z,4.78
2019-04-21T22:02:17.168Z,4.47
2019-04-21T22:04:51.278Z,4.70
2019-04-21T22:07:15.163Z,4.97
2019-04-21T22:09:39.911Z,4.32
2019-04-21T22:12:10.260Z,5.70
2019-04-21T22:14:41.632Z,4.87
2019-04-21T22:17:21.772Z,4.77
2019-04-21T22:20:00.406Z,4.80
2019-04-21T22:22:21.574Z,4.67
2019-04-21T22:24:46.661Z,4.70
2019-04-21T22:27:03.125Z,5.37
2019-04-21T22:31:27.781Z,4.85
2019-04-21T22:33:54.878Z,4.70
2019-04-21T22:36:33.042Z,4.53
2019-04-21T22:39:09.200Z,4.83
2019-04-21T22:41:26.577Z,4.80
2019-04-21T22:43:51.502Z,4.67
2019-04-21T22:46:16.270Z,4.33
2019-04-21T22:48:52.083Z,4.77
2019-04-21T22:51:20.328Z,4.63
2019-04-21T22:53:48.298Z,4.73
2019-04-21T22:56:19.780Z,4.33
2019-04-21T22:58:42.924Z,4.80
2019-04-21T23:01:10.931Z,4.90
2019-04-21T23:03:40.170Z,4.43
2019-04-21T23:06:15.570Z,4.57
2019-04-21T23:08:40.540Z,4.83
2019-04-21T23:11:08.645Z,4.73
2019-04-21T23:13:34.551Z,4.70
2019-04-21T23:16:04.150Z,4.50
2019-04-21T23:18:46.083Z,4.83
2019-04-21T23:21:15.010Z,4.50
2019-04-21T23:23:53.164Z,4.77
2019-04-21T23:26:18.179Z,4.70
2019-04-21T23:28:45.533Z,5.20
2019-04-21T23:31:18.689Z,5.00
2019-04-21T23:33:25.736Z,5.30
2019-04-21T23:36:02.621Z,5.60
2019-04-21T23:38:31.815Z,5.00
2019-04-21T23:40:57.775Z,5.50
2019-04-21T23:43:25.858Z,5.20
2019-04-21T23:45:52.128Z,5.00
2019-04-21T23:48:34.905Z,5.62
2019-04-21T23:50:55.050Z,5.60
2019-04-21T23:53:19.454Z,5.40
2019-04-21T23:55:47.423Z,4.60
2019-04-21T23:58:23.224Z,5.10
